createdAt,value
2022-10-15T00:01:22.648Z,10.35
2022-10-15T00:03:50.009Z,11.38
2022-10-15T00:06:19.924Z,11.85
2022-10-15T00:08:48.155Z,11.45
2022-10-15T00:11:21.075Z,11.73
2022-10-15T00:13:49.431Z,11.27
2022-10-15T00:16:21.967Z,13.93
2022-10-15T00:18:50.010Z,13.30
2022-10-15T00:21:20.003Z,12.82
2022-10-15T00:23:48.434Z,12.57
2022-10-15T00:26:25.475Z,12.20
2022-10-15T00:28:55.120Z,13.38
2022-10-15T00:31:24.636Z,11.60
2022-10-15T00:33:52.821Z,14.50
2022-10-15T00:36:25.934Z,12.57
2022-10-15T00:38:53.806Z,12.23
2022-10-15T00:41:30.699Z,15.05
2022-10-15T00:44:22.464Z,11.38
2022-10-15T00:47:17.401Z,9.90
2022-10-15T00:50:10.029Z,9.40
2022-10-15T00:52:51.041Z,9.52
2022-10-15T00:55:32.530Z,9.10
2022-10-15T00:58:07.986Z,9.30
2022-10-15T01:00:35.266Z,11.50
2022-10-15T01:03:02.566Z,13.88
2022-10-15T01:05:30.091Z,10.88
2022-10-15T01:07:57.486Z,9.90
2022-10-15T01:10:32.918Z,9.68
2022-10-15T01:13:20.845Z,8.90
2022-10-15T01:16:19.914Z,8.75
2022-10-15T01:18:57.615Z,11.68
2022-10-15T01:21:38.658Z,11.15
2022-10-15T01:24:14.718Z,11.55
2022-10-15T01:27:25.030Z,10.93
2022-10-15T01:30:20.175Z,9.23
2022-10-15T01:32:57.670Z,9.05
2022-10-15T01:35:30.474Z,10.55
2022-10-15T01:38:08.627Z,11.18
2022-10-15T01:40:54.278Z,9.63
2022-10-15T01:43:51.237Z,9.75
2022-10-15T01:46:41.403Z,9.90
2022-10-15T01:49:11.262Z,10.80
2022-10-15T01:51:40.356Z,10.73
2022-10-15T01:54:11.960Z,10.73
2022-10-15T01:56:40.001Z,10.63
2022-10-15T01:59:09.450Z,11.13
2022-10-15T02:01:36.743Z,12.90
2022-10-15T02:04:22.572Z,12.90
2022-10-15T02:07:23.636Z,14.07
2022-10-15T02:10:10.084Z,14.27
2022-10-15T02:12:48.259Z,14.20
2022-10-15T02:15:23.325Z,14.82
2022-10-15T02:18:09.152Z,15.27
2022-10-15T02:20:58.002Z,15.18
2022-10-15T02:23:38.437Z,14.60
2022-10-15T02:26:09.065Z,15.02
2022-10-15T02:28:39.242Z,14.60
2022-10-15T02:31:09.240Z,15.63
2022-10-15T02:33:37.912Z,16.67
2022-10-15T02:36:05.552Z,16.85
2022-10-15T02:38:34.471Z,15.07
2022-10-15T02:41:02.350Z,15.70
2022-10-15T02:43:30.650Z,14.00
2022-10-15T02:45:57.854Z,16.05
2022-10-15T02:48:25.516Z,14.93
2022-10-15T02:50:52.749Z,15.68
2022-10-15T02:53:19.829Z,15.18
2022-10-15T02:55:47.377Z,16.33
2022-10-15T02:58:14.497Z,16.83
2022-10-15T03:00:41.665Z,17.40
2022-10-15T03:03:08.946Z,18.40
2022-10-15T03:05:36.194Z,17.88
2022-10-15T03:08:03.485Z,15.75
2022-10-15T03:10:30.711Z,18.23
2022-10-15T03:13:03.924Z,17.48
2022-10-15T03:15:31.511Z,16.05
2022-10-15T03:17:58.659Z,15.70
2022-10-15T03:20:25.777Z,16.45
2022-10-15T03:22:52.965Z,17.08
2022-10-15T03:25:20.123Z,17.83
2022-10-15T03:27:47.994Z,17.30
2022-10-15T03:30:15.143Z,17.92
2022-10-15T03:35:10.386Z,17.42
2022-10-15T03:37:37.587Z,17.67
2022-10-15T03:40:05.198Z,21.48
2022-10-15T03:42:32.344Z,17.35
2022-10-15T03:44:59.478Z,17.58
2022-10-15T03:47:26.603Z,20.42
2022-10-15T03:49:53.818Z,17.42
2022-10-15T03:52:21.390Z,18.55
2022-10-15T03:54:48.805Z,17.33
2022-10-15T03:57:15.926Z,16.48
2022-10-15T04:02:15.449Z,16.98
2022-10-15T04:04:42.615Z,19.65
2022-10-15T04:07:09.854Z,16.83
2022-10-15T04:09:37.034Z,16.23
2022-10-15T04:12:04.483Z,18.95
2022-10-15T04:14:31.756Z,19.63
2022-10-15T04:16:59.270Z,20.38
2022-10-15T04:19:26.524Z,18.58
2022-10-15T04:21:53.615Z,17.98
2022-10-15T04:24:20.915Z,16.40
2022-10-15T04:26:48.150Z,16.90
2022-10-15T04:29:15.269Z,18.63
2022-10-15T04:31:43.641Z,18.17
2022-10-15T04:34:11.420Z,18.88
2022-10-15T04:36:38.513Z,16.90
2022-10-15T04:39:08.569Z,15.88
2022-10-15T04:41:37.945Z,20.00
2022-10-15T04:44:05.332Z,22.10
2022-10-15T04:46:32.460Z,16.77
2022-10-15T04:48:59.693Z,19.02
2022-10-15T04:51:27.465Z,20.02
2022-10-15T04:53:55.415Z,17.55
2022-10-15T04:56:23.022Z,16.45
2022-10-15T04:58:51.208Z,16.13
2022-10-15T05:01:20.745Z,18.17
2022-10-15T05:03:49.146Z,17.85
2022-10-15T05:06:22.128Z,31.50
2022-10-15T05:08:50.422Z,31.95
2022-10-15T05:11:23.521Z,35.42
2022-10-15T05:13:51.589Z,17.55
2022-10-15T05:16:24.506Z,19.48
2022-10-15T05:18:55.187Z,19.40
2022-10-15T05:21:22.477Z,18.80
2022-10-15T05:23:51.186Z,15.25
2022-10-15T05:26:23.192Z,15.40
2022-10-15T05:28:51.402Z,15.45
2022-10-15T05:31:23.764Z,14.35
2022-10-15T05:33:52.655Z,16.30
2022-10-15T05:36:27.431Z,15.02
2022-10-15T05:39:02.372Z,13.82
2022-10-15T05:41:30.295Z,14.95
2022-10-15T05:43:58.942Z,14.02
2022-10-15T05:46:26.823Z,12.57
2022-10-15T05:48:57.456Z,11.55
2022-10-15T05:51:26.247Z,11.95
2022-10-15T05:53:54.993Z,11.95
2022-10-15T05:56:22.581Z,12.55
2022-10-15T05:58:50.070Z,12.60
2022-10-15T06:01:17.994Z,11.90
2022-10-15T06:03:45.640Z,10.82
2022-10-15T06:06:21.642Z,13.50
2022-10-15T06:08:49.685Z,11.85
2022-10-15T06:11:17.391Z,11.45
2022-10-15T06:13:45.583Z,11.57
2022-10-15T06:16:16.636Z,12.05
2022-10-15T06:18:46.618Z,11.45
2022-10-15T06:21:14.036Z,11.77
2022-10-15T06:23:41.412Z,12.32
2022-10-15T06:26:10.351Z,10.80
2022-10-15T06:28:38.776Z,11.55
2022-10-15T06:31:06.819Z,10.43
2022-10-15T06:33:34.642Z,10.10
2022-10-15T06:36:03.743Z,10.02
2022-10-15T06:38:31.164Z,10.50
2022-10-15T06:40:58.442Z,9.23
2022-10-15T06:43:27.096Z,9.77
2022-10-15T06:45:55.870Z,9.98
2022-10-15T06:48:23.062Z,9.32
2022-10-15T06:50:50.192Z,9.63
2022-10-15T06:53:17.602Z,8.80
2022-10-15T06:55:44.864Z,8.65
2022-10-15T06:58:12.100Z,9.25
2022-10-15T07:00:39.469Z,8.43
2022-10-15T07:03:08.187Z,8.93
2022-10-15T07:05:36.027Z,8.35
2022-10-15T07:08:03.243Z,9.00
2022-10-15T07:10:30.456Z,8.77
2022-10-15T07:13:00.853Z,8.52
2022-10-15T07:15:28.937Z,8.65
2022-10-15T07:17:58.074Z,8.18
2022-10-15T07:20:25.265Z,8.43
2022-10-15T07:22:58.501Z,8.35
2022-10-15T07:25:26.605Z,8.30
2022-10-15T07:27:55.681Z,7.95
2022-10-15T07:30:27.542Z,7.57
2022-10-15T07:32:57.370Z,7.20
2022-10-15T07:35:25.614Z,6.93
2022-10-15T07:37:52.761Z,7.03
2022-10-15T07:40:20.273Z,7.13
2022-10-15T07:42:58.752Z,6.80
2022-10-15T07:45:27.553Z,6.78
2022-10-15T07:47:55.099Z,7.13
2022-10-15T07:50:22.819Z,6.65
2022-10-15T07:52:49.953Z,7.05
2022-10-15T07:55:17.561Z,8.10
2022-10-15T07:57:45.196Z,7.47
2022-10-15T08:00:13.119Z,7.25
2022-10-15T08:02:40.953Z,6.30
2022-10-15T08:05:08.548Z,5.95
2022-10-15T08:07:35.976Z,6.40
2022-10-15T08:10:03.173Z,5.15
2022-10-15T08:12:30.411Z,5.30
2022-10-15T08:14:57.481Z,4.68
2022-10-15T08:17:24.705Z,4.43
2022-10-15T08:19:51.950Z,3.58
2022-10-15T08:22:19.229Z,3.88
2022-10-15T08:24:46.775Z,3.75
2022-10-15T08:27:14.469Z,3.45
2022-10-15T08:29:41.678Z,3.90
2022-10-15T08:32:08.898Z,3.65
2022-10-15T08:34:36.169Z,3.35
2022-10-15T08:37:03.815Z,3.13
2022-10-15T08:39:31.219Z,3.50
2022-10-15T08:42:05.170Z,2.83
2022-10-15T08:44:40.594Z,2.92
2022-10-15T08:47:10.884Z,2.50
2022-10-15T08:49:58.944Z,2.95
2022-10-15T08:52:49.551Z,2.08
2022-10-15T08:55:19.587Z,2.13
2022-10-15T08:57:55.747Z,1.70
2022-10-15T09:00:27.681Z,1.95
2022-10-15T09:02:57.991Z,2.58
2022-10-15T09:05:40.304Z,1.92
2022-10-15T09:08:38.974Z,2.00
2022-10-15T09:11:17.165Z,1.77
2022-10-15T09:13:46.259Z,1.70
2022-10-15T09:16:25.877Z,1.60
2022-10-15T09:18:54.662Z,1.77
2022-10-15T09:21:25.587Z,1.90
2022-10-15T09:24:16.354Z,2.03
2022-10-15T09:27:07.021Z,2.00
2022-10-15T09:29:46.385Z,2.28
2022-10-15T09:32:22.809Z,2.05
2022-10-15T09:35:20.719Z,1.95
2022-10-15T09:37:56.514Z,2.30
2022-10-15T09:40:45.058Z,2.10
2022-10-15T09:43:13.679Z,2.10
2022-10-15T09:45:40.977Z,2.08
2022-10-15T09:48:19.813Z,1.77
2022-10-15T09:51:03.031Z,1.80
2022-10-15T09:53:58.130Z,1.98
2022-10-15T09:56:37.533Z,1.92
2022-10-15T09:59:08.897Z,1.67
2022-10-15T10:01:37.229Z,1.70
2022-10-15T10:04:21.892Z,1.50
2022-10-15T10:06:56.487Z,1.55
2022-10-15T10:09:31.892Z,1.52
2022-10-15T10:12:08.900Z,2.80
2022-10-15T10:14:59.283Z,2.70
2022-10-15T10:17:29.016Z,1.92
2022-10-15T10:20:30.325Z,2.00
2022-10-15T10:23:02.677Z,1.65
2022-10-15T10:25:33.982Z,1.80
2022-10-15T10:28:06.434Z,1.75
2022-10-15T10:30:40.030Z,1.52
2022-10-15T10:33:07.651Z,1.70
2022-10-15T10:38:42.846Z,1.50
2022-10-15T10:41:16.324Z,1.52
2022-10-15T10:43:55.411Z,1.80
2022-10-15T10:46:26.234Z,1.50
2022-10-15T10:48:54.684Z,1.65
2022-10-15T10:51:25.966Z,2.08
2022-10-15T10:53:58.418Z,1.85
2022-10-15T10:56:35.406Z,1.95
2022-10-15T10:59:30.898Z,1.70
2022-10-15T11:01:59.734Z,1.63
2022-10-15T11:04:30.938Z,1.50
2022-10-15T11:07:43.971Z,1.88
2022-10-15T11:10:20.036Z,2.00
2022-10-15T11:15:57.306Z,1.40
2022-10-15T11:18:53.627Z,1.67
2022-10-15T11:21:52.512Z,1.40
2022-10-15T11:24:33.555Z,1.70
2022-10-15T11:27:33.189Z,1.63
2022-10-15T11:30:29.258Z,1.48
2022-10-15T11:33:14.846Z,1.90
2022-10-15T11:36:09.532Z,1.23
2022-10-15T11:38:51.535Z,1.35
2022-10-15T11:41:33.164Z,1.23
2022-10-15T11:44:05.914Z,1.30
2022-10-15T11:46:36.225Z,1.02
2022-10-15T11:49:39.699Z,1.58
2022-10-15T11:52:44.461Z,0.95
2022-10-15T11:55:19.371Z,0.88
2022-10-15T11:57:50.825Z,1.02
2022-10-15T12:00:47.381Z,0.70
2022-10-15T12:03:23.240Z,0.80
2022-10-15T12:05:53.433Z,0.70
2022-10-15T12:08:23.446Z,0.80
2022-10-15T12:11:15.802Z,1.00
2022-10-15T12:13:52.459Z,0.80
2022-10-15T12:16:49.346Z,0.68
2022-10-15T12:19:18.408Z,2.20
2022-10-15T12:22:11.010Z,0.80
2022-10-15T12:24:45.256Z,0.93
2022-10-15T12:27:37.385Z,0.90
2022-10-15T12:30:05.422Z,1.10
2022-10-15T12:32:46.706Z,0.98
2022-10-15T12:35:17.043Z,1.00
2022-10-15T12:37:46.783Z,1.48
2022-10-15T12:40:22.210Z,0.90
2022-10-15T12:43:02.822Z,1.17
2022-10-15T12:45:39.167Z,1.02
2022-10-15T12:48:21.500Z,0.98
2022-10-15T12:50:48.943Z,0.80
2022-10-15T12:53:29.990Z,0.70
2022-10-15T12:56:16.082Z,0.60
2022-10-15T12:58:53.834Z,0.80
2022-10-15T13:01:21.059Z,0.70
2022-10-15T13:03:51.621Z,0.93
2022-10-15T13:06:22.108Z,0.73
2022-10-15T13:09:07.969Z,0.80
2022-10-15T13:11:56.904Z,1.00
2022-10-15T13:14:48.826Z,0.70
2022-10-15T13:17:21.206Z,0.65
2022-10-15T13:20:24.469Z,0.80
2022-10-15T13:22:58.349Z,0.80
2022-10-15T13:25:34.043Z,0.90
2022-10-15T13:28:01.283Z,0.90
2022-10-15T13:30:28.557Z,0.80
2022-10-15T13:32:57.074Z,0.90
2022-10-15T13:35:28.317Z,1.05
2022-10-15T13:37:58.236Z,0.70
2022-10-15T13:40:28.628Z,1.00
2022-10-15T13:43:20.623Z,0.73
2022-10-15T13:45:57.925Z,0.80
2022-10-15T13:48:31.690Z,1.00
2022-10-15T13:51:04.689Z,0.88
2022-10-15T13:53:41.386Z,0.70
2022-10-15T13:56:31.249Z,0.90
2022-10-15T13:59:01.548Z,0.90
2022-10-15T14:01:30.564Z,0.63
2022-10-15T14:04:17.759Z,0.90
2022-10-15T14:06:57.106Z,1.00
2022-10-15T14:09:35.742Z,1.08
2022-10-15T14:12:07.232Z,0.80
2022-10-15T14:14:41.894Z,0.63
2022-10-15T14:17:17.771Z,1.25
2022-10-15T14:20:14.441Z,0.80
2022-10-15T14:25:27.137Z,0.90
2022-10-15T14:27:54.776Z,0.98
2022-10-15T14:30:32.003Z,0.90
2022-10-15T14:32:59.271Z,0.95
2022-10-15T14:35:33.062Z,0.70
2022-10-15T14:38:01.614Z,0.90
2022-10-15T14:40:29.258Z,1.02
2022-10-15T14:45:26.811Z,1.20
2022-10-15T14:47:57.667Z,0.70
2022-10-15T14:50:34.357Z,0.98
2022-10-15T14:53:08.562Z,0.80
2022-10-15T14:55:42.117Z,0.88
2022-10-15T14:58:20.957Z,0.90
2022-10-15T15:00:55.185Z,0.82
2022-10-15T15:03:28.505Z,0.90
2022-10-15T15:05:57.351Z,0.90
2022-10-15T15:08:26.399Z,1.00
2022-10-15T15:14:41.528Z,0.70
2022-10-15T15:17:16.208Z,1.05
2022-10-15T15:19:44.006Z,0.80
2022-10-15T15:22:15.057Z,1.00
2022-10-15T15:24:42.512Z,0.80
2022-10-15T15:27:25.309Z,0.98
2022-10-15T15:29:55.549Z,0.90
2022-10-15T15:32:23.662Z,0.80
2022-10-15T15:34:52.577Z,0.70
2022-10-15T15:37:23.157Z,0.77
2022-10-15T15:39:51.513Z,4.95
2022-10-15T15:42:24.096Z,5.90
2022-10-15T15:44:53.043Z,1.00
2022-10-15T15:47:23.206Z,1.15
2022-10-15T15:49:52.622Z,0.90
2022-10-15T15:52:21.588Z,0.90
2022-10-15T15:54:52.969Z,1.08
2022-10-15T15:57:22.810Z,0.98
2022-10-15T15:59:51.073Z,1.20
2022-10-15T16:02:18.541Z,1.30
2022-10-15T16:04:46.113Z,1.50
2022-10-15T16:07:19.383Z,1.13
2022-10-15T16:09:46.731Z,1.00
2022-10-15T16:12:15.432Z,1.00
2022-10-15T16:14:45.019Z,1.27
2022-10-15T16:17:12.612Z,1.27
2022-10-15T16:19:39.808Z,1.50
2022-10-15T16:22:07.234Z,2.22
2022-10-15T16:24:37.095Z,1.85
2022-10-15T16:27:09.184Z,2.20
2022-10-15T16:29:37.783Z,2.30
2022-10-15T16:32:05.634Z,1.88
2022-10-15T16:34:34.112Z,1.90
2022-10-15T16:37:02.572Z,2.58
2022-10-15T16:39:30.001Z,2.25
2022-10-15T16:41:57.106Z,2.38
2022-10-15T16:44:24.776Z,2.75
2022-10-15T16:46:57.489Z,2.50
2022-10-15T16:49:25.063Z,2.45
2022-10-15T16:51:52.974Z,2.50
2022-10-15T16:54:20.824Z,2.25
2022-10-15T16:56:50.566Z,2.25
2022-10-15T16:59:20.626Z,2.25
2022-10-15T17:01:47.759Z,2.10
2022-10-15T17:04:14.878Z,2.22
2022-10-15T17:06:41.957Z,2.33
2022-10-15T17:09:09.180Z,2.10
2022-10-15T17:11:39.630Z,1.90
2022-10-15T17:14:09.808Z,1.65
2022-10-15T17:16:46.391Z,2.05
2022-10-15T17:19:14.937Z,2.25
2022-10-15T17:21:42.528Z,1.90
2022-10-15T17:24:12.477Z,1.92
2022-10-15T17:26:40.793Z,2.17
2022-10-15T17:29:11.119Z,2.10
2022-10-15T17:31:38.689Z,1.75
2022-10-15T17:34:10.029Z,1.80
2022-10-15T17:36:43.099Z,1.98
2022-10-15T17:39:15.258Z,1.85
2022-10-15T17:41:42.262Z,1.60
2022-10-15T17:44:11.367Z,1.75
2022-10-15T17:46:38.735Z,1.77
2022-10-15T17:49:06.338Z,1.55
2022-10-15T17:51:34.919Z,9.35
2022-10-15T17:54:02.555Z,5.30
2022-10-15T17:56:34.682Z,3.83
2022-10-15T17:59:03.914Z,3.38
2022-10-15T18:01:56.640Z,1.65
2022-10-15T18:04:21.159Z,1.92
2022-10-15T18:06:48.693Z,1.80
2022-10-15T18:09:15.740Z,1.70
2022-10-15T18:11:42.896Z,1.65
2022-10-15T18:14:10.031Z,1.65
2022-10-15T18:16:37.022Z,1.70
2022-10-15T18:19:04.240Z,1.90
2022-10-15T18:21:31.259Z,1.63
2022-10-15T18:24:00.163Z,1.45
2022-10-15T18:26:27.342Z,1.63
2022-10-15T18:28:54.706Z,1.73
2022-10-15T18:31:22.941Z,2.10
2022-10-15T18:33:52.126Z,1.92
2022-10-15T18:36:30.736Z,1.90
2022-10-15T18:38:58.905Z,1.77
2022-10-15T18:41:28.669Z,2.00
2022-10-15T18:43:55.644Z,2.17
2022-10-15T18:46:23.192Z,1.88
2022-10-15T18:48:51.121Z,2.00
2022-10-15T18:51:18.378Z,2.20
2022-10-15T18:53:45.454Z,1.75
2022-10-15T18:56:14.007Z,1.95
2022-10-15T18:58:44.484Z,2.97
2022-10-15T19:01:12.965Z,2.80
2022-10-15T19:03:40.809Z,2.50
2022-10-15T19:06:09.021Z,2.70
2022-10-15T19:08:36.230Z,3.20
2022-10-15T19:11:09.228Z,3.00
2022-10-15T19:13:37.002Z,3.08
2022-10-15T19:16:04.965Z,3.00
2022-10-15T19:18:32.715Z,3.97
2022-10-15T19:20:59.792Z,3.92
2022-10-15T19:23:27.025Z,3.90
2022-10-15T19:25:54.166Z,3.83
2022-10-15T19:28:21.238Z,3.30
2022-10-15T19:31:00.598Z,3.63
2022-10-15T19:33:30.460Z,3.67
2022-10-15T19:35:58.131Z,3.70
2022-10-15T19:38:26.249Z,3.08
2022-10-15T19:40:54.166Z,3.90
2022-10-15T19:43:22.842Z,3.60
2022-10-15T19:45:51.367Z,3.63
2022-10-15T19:48:19.695Z,4.10
2022-10-15T19:50:47.774Z,4.72
2022-10-15T19:53:17.424Z,4.40
2022-10-15T19:55:55.164Z,4.22
2022-10-15T19:58:22.917Z,4.22
2022-10-15T20:00:50.846Z,4.07
2022-10-15T20:03:18.997Z,4.38
2022-10-15T20:05:46.830Z,3.90
2022-10-15T20:08:14.355Z,3.92
2022-10-15T20:10:49.493Z,4.28
2022-10-15T20:13:16.725Z,4.03
2022-10-15T20:15:45.993Z,4.13
2022-10-15T20:18:14.742Z,3.85
2022-10-15T20:20:46.129Z,4.43
2022-10-15T20:23:14.896Z,4.85
2022-10-15T20:25:43.179Z,4.53
2022-10-15T20:28:12.144Z,4.70
2022-10-15T20:30:39.996Z,4.88
2022-10-15T20:33:08.327Z,4.97
2022-10-15T20:35:36.950Z,4.65
2022-10-15T20:38:06.747Z,4.45
2022-10-15T20:40:35.757Z,4.97
2022-10-15T20:43:02.888Z,4.90
2022-10-15T20:45:34.878Z,5.15
2022-10-15T20:48:03.504Z,5.20
2022-10-15T20:50:34.391Z,4.60
2022-10-15T20:53:02.891Z,4.40
2022-10-15T20:55:30.098Z,4.28
2022-10-15T20:57:57.354Z,3.70
2022-10-15T21:00:24.531Z,3.53
2022-10-15T21:02:51.640Z,3.35
2022-10-15T21:05:18.912Z,3.30
2022-10-15T21:07:47.152Z,3.22
2022-10-15T21:10:14.313Z,3.30
2022-10-15T21:12:41.463Z,2.92
2022-10-15T21:15:09.124Z,3.22
2022-10-15T21:17:36.342Z,3.63
2022-10-15T21:20:03.757Z,3.40
2022-10-15T21:22:30.877Z,3.42
2022-10-15T21:24:58.041Z,3.92
2022-10-15T21:27:25.442Z,4.40
2022-10-15T21:29:52.767Z,4.75
2022-10-15T21:32:20.387Z,4.47
2022-10-15T21:34:47.560Z,4.05
2022-10-15T21:37:14.792Z,3.65
2022-10-15T21:39:41.989Z,3.80
2022-10-15T21:42:09.101Z,3.53
2022-10-15T21:44:36.363Z,3.20
2022-10-15T21:47:05.384Z,2.97
2022-10-15T21:49:32.566Z,2.97
2022-10-15T21:51:59.775Z,2.75
2022-10-15T21:54:27.096Z,2.70
2022-10-15T21:56:54.160Z,2.65
2022-10-15T21:59:21.408Z,2.85
2022-10-15T22:01:48.580Z,2.60
2022-10-15T22:04:15.935Z,2.55
2022-10-15T22:06:43.244Z,2.40
2022-10-15T22:09:11.230Z,2.50
2022-10-15T22:11:40.871Z,2.03
2022-10-15T22:14:12.125Z,2.03
2022-10-15T22:16:41.175Z,2.28
2022-10-15T22:19:10.594Z,2.33
2022-10-15T22:21:38.986Z,2.47
2022-10-15T22:24:09.385Z,2.08
2022-10-15T22:26:39.145Z,1.85
2022-10-15T22:29:07.876Z,2.15
2022-10-15T22:31:35.210Z,2.25
2022-10-15T22:34:02.427Z,2.10
2022-10-15T22:36:31.623Z,2.20
2022-10-15T22:39:05.574Z,2.20
2022-10-15T22:41:39.897Z,2.53
2022-10-15T22:46:37.331Z,1.88
2022-10-15T22:49:05.484Z,2.33
2022-10-15T22:51:33.494Z,2.70
2022-10-15T22:54:01.535Z,2.75
2022-10-15T22:56:29.621Z,2.67
2022-10-15T22:58:58.423Z,3.22
2022-10-15T23:01:27.903Z,3.10
2022-10-15T23:03:57.650Z,3.08
2022-10-15T23:06:26.267Z,3.00
2022-10-15T23:08:53.773Z,3.10
2022-10-15T23:11:22.380Z,3.25
2022-10-15T23:13:53.982Z,2.75
2022-10-15T23:16:23.611Z,2.80
2022-10-15T23:18:56.068Z,2.92
2022-10-15T23:21:40.443Z,3.17
2022-10-15T23:24:08.146Z,3.08
2022-10-15T23:26:36.969Z,3.00
2022-10-15T23:29:07.391Z,2.88
2022-10-15T23:31:36.600Z,2.88
2022-10-15T23:34:04.948Z,3.33
2022-10-15T23:36:33.478Z,2.70
2022-10-15T23:39:03.247Z,2.83
2022-10-15T23:41:31.028Z,2.55
2022-10-15T23:43:58.324Z,2.92
2022-10-15T23:46:25.408Z,2.75
2022-10-15T23:48:53.047Z,2.63
2022-10-15T23:51:23.132Z,2.90
2022-10-15T23:53:50.424Z,2.83
2022-10-15T23:56:18.174Z,2.58
2022-10-15T23:58:49.728Z,2.70
